KLOZ

London-Corbin Arpt-Magee Field Airport

London, Kentucky, USA
METAR KLOZ 190853Z AUTO 00000KT 6SM BR CLR 19/19 A3000 RMK AO2 SLP144 T01940194 53002 $
Observed Flight Rules
Sep-19 @ 08:53 UTC (51 minutes ago) Visual Flight Rules
Visibility Clouds Conditions
6 miles
  • Clear skies
  • Mist
Temperatures Readings
Current 19°C / 66°F
Dewpoint 19°C / 66°F
Humidity 100%
Altimeter 30" Hg
Pressure 1014.4 hPa
Elevation 362
METAR KLOZ 190853Z AUTO 00000KT 6SM BR CLR 19/19 A3000 RMK AO2 SLP144 T01940194 53002 $
Observed Flight Rules
Sep-19 @ 08:53 UTC
(51 minutes ago)
VFR
Clouds
  • Clear skies
Conditions
  • Mist
Temperature Dewpoint
19°C / 66°F 19°C / 66°F
Humidity Altimeter Pressure
100% 30" Hg 1014.4 hPa